sensor_id;sensor_type;location;lat;lon;timestamp;temperature;humidity
24436;DHT22;12616;52.470;13.436;2024-01-16T00:00:20;0.40;99.90
24436;DHT22;12616;52.470;13.436;2024-01-16T00:03:21;0.40;99.90
24436;DHT22;12616;52.470;13.436;2024-01-16T00:06:40;0.30;1.00
24436;DHT22;12616;52.470;13.436;2024-01-16T00:09:14;0.20;77.10
24436;DHT22;12616;52.470;13.436;2024-01-16T00:12:07;0.50;99.90
24436;DHT22;12616;52.470;13.436;2024-01-16T00:15:18;-0.10;1.00
24436;DHT22;12616;52.470;13.436;2024-01-16T00:21:18;-0.20;1.00
24436;DHT22;12616;52.470;13.436;2024-01-16T00:27:31;-0.30;1.00
24436;DHT22;12616;52.470;13.436;2024-01-16T00:30:55;-0.30;99.90
24436;DHT22;12616;52.470;13.436;2024-01-16T00:34:04;0.40;1.00
24436;DHT22;12616;52.470;13.436;2024-01-16T00:37:12;-0.30;1.00
24436;DHT22;12616;52.470;13.436;2024-01-16T00:40:32;-0.30;1.00
24436;DHT22;12616;52.470;13.436;2024-01-16T00:44:17;0.30;1.00
24436;DHT22;12616;52.470;13.436;2024-01-16T00:46:41;-0.30;20.50
24436;DHT22;12616;52.470;13.436;2024-01-16T00:49:35;-0.30;99.90
24436;DHT22;12616;52.470;13.436;2024-01-16T00:52:28;-0.40;99.90
24436;DHT22;12616;52.470;13.436;2024-01-16T00:55:04;-0.40;1.00
24436;DHT22;12616;52.470;13.436;2024-01-16T00:58:06;-0.50;1.00
24436;DHT22;12616;52.470;13.436;2024-01-16T01:01:22;-0.50;1.00
24436;DHT22;12616;52.470;13.436;2024-01-16T01:04:13;-0.60;1.00
24436;DHT22;12616;52.470;13.436;2024-01-16T01:06:48;-0.60;1.00
24436;DHT22;12616;52.470;13.436;2024-01-16T01:09:37;-0.70;1.00
24436;DHT22;12616;52.470;13.436;2024-01-16T01:12:19;-0.60;1.00
24436;DHT22;12616;52.470;13.436;2024-01-16T01:15:03;-0.70;1.00
24436;DHT22;12616;52.470;13.436;2024-01-16T01:24:09;-1.00;1.00
24436;DHT22;12616;52.470;13.436;2024-01-16T01:26:48;-1.10;1.00
24436;DHT22;12616;52.470;13.436;2024-01-16T01:29:33;-1.20;1.00
24436;DHT22;12616;52.470;13.436;2024-01-16T01:32:13;-1.30;1.50
24436;DHT22;12616;52.470;13.436;2024-01-16T01:34:44;-1.30;26.80
24436;DHT22;12616;52.470;13.436;2024-01-16T01:37:14;-1.30;40.50
24436;DHT22;12616;52.470;13.436;2024-01-16T01:39:55;-1.30;73.40
24436;DHT22;12616;52.470;13.436;2024-01-16T01:49:12;-1.30;99.90
24436;DHT22;12616;52.470;13.436;2024-01-16T01:51:54;-1.40;99.90
24436;DHT22;12616;52.470;13.436;2024-01-16T01:54:37;-0.80;99.90
24436;DHT22;12616;52.470;13.436;2024-01-16T01:57:22;-1.30;93.70
24436;DHT22;12616;52.470;13.436;2024-01-16T01:59:52;-1.30;46.60
24436;DHT22;12616;52.470;13.436;2024-01-16T02:02:43;-1.30;34.90
24436;DHT22;12616;52.470;13.436;2024-01-16T02:05:10;-1.40;31.40
24436;DHT22;12616;52.470;13.436;2024-01-16T02:07:54;-1.40;39.90
24436;DHT22;12616;52.470;13.436;2024-01-16T02:10:25;-1.40;64.60
24436;DHT22;12616;52.470;13.436;2024-01-16T02:12:58;-1.30;55.90
24436;DHT22;12616;52.470;13.436;2024-01-16T02:15:41;-1.30;39.40
24436;DHT22;12616;52.470;13.436;2024-01-16T02:18:14;-1.30;36.40
24436;DHT22;12616;52.470;13.436;2024-01-16T02:20:49;-1.30;35.30
24436;DHT22;12616;52.470;13.436;2024-01-16T02:23:28;-1.30;30.40
24436;DHT22;12616;52.470;13.436;2024-01-16T02:26:08;-1.00;25.00
24436;DHT22;12616;52.470;13.436;2024-01-16T02:28:38;-0.10;26.00
24436;DHT22;12616;52.470;13.436;2024-01-16T02:31:31;-1.00;15.60
24436;DHT22;12616;52.470;13.436;2024-01-16T02:34:15;-1.40;1.00
24436;DHT22;12616;52.470;13.436;2024-01-16T02:36:49;-1.20;1.00
24436;DHT22;12616;52.470;13.436;2024-01-16T02:39:44;-0.80;1.00
24436;DHT22;12616;52.470;13.436;2024-01-16T02:42:27;-0.80;1.00
24436;DHT22;12616;52.470;13.436;2024-01-16T02:44:54;-1.20;1.00
24436;DHT22;12616;52.470;13.436;2024-01-16T02:47:33;-1.20;1.00
24436;DHT22;12616;52.470;13.436;2024-01-16T02:50:06;-1.20;1.00
24436;DHT22;12616;52.470;13.436;2024-01-16T02:52:52;-1.20;1.00
24436;DHT22;12616;52.470;13.436;2024-01-16T02:55:29;-1.30;1.00
24436;DHT22;12616;52.470;13.436;2024-01-16T02:58:30;-1.30;1.00
24436;DHT22;12616;52.470;13.436;2024-01-16T03:05:09;-1.40;1.00
24436;DHT22;12616;52.470;13.436;2024-01-16T03:08:06;-1.30;1.00
24436;DHT22;12616;52.470;13.436;2024-01-16T03:10:54;-1.30;1.00
24436;DHT22;12616;52.470;13.436;2024-01-16T03:13:28;-1.30;1.00
24436;DHT22;12616;52.470;13.436;2024-01-16T03:16:11;-0.90;1.00
24436;DHT22;12616;52.470;13.436;2024-01-16T03:18:58;-1.30;1.00
24436;DHT22;12616;52.470;13.436;2024-01-16T03:21:52;-1.30;1.00
24436;DHT22;12616;52.470;13.436;2024-01-16T03:28:33;-1.30;1.00
24436;DHT22;12616;52.470;13.436;2024-01-16T03:35:08;-1.20;1.00
24436;DHT22;12616;52.470;13.436;2024-01-16T03:37:55;-1.20;1.00
24436;DHT22;12616;52.470;13.436;2024-01-16T03:49:15;-1.20;1.00
24436;DHT22;12616;52.470;13.436;2024-01-16T03:52:13;-1.20;1.00
24436;DHT22;12616;52.470;13.436;2024-01-16T03:55:17;-1.10;1.00
24436;DHT22;12616;52.470;13.436;2024-01-16T03:58:07;-0.90;1.00
24436;DHT22;12616;52.470;13.436;2024-01-16T04:00:57;-1.10;1.00
24436;DHT22;12616;52.470;13.436;2024-01-16T04:07:04;-0.90;1.00
24436;DHT22;12616;52.470;13.436;2024-01-16T04:12:17;-1.00;1.00
24436;DHT22;12616;52.470;13.436;2024-01-16T04:14:43;-1.00;1.00
24436;DHT22;12616;52.470;13.436;2024-01-16T04:17:10;-1.00;1.00
24436;DHT22;12616;52.470;13.436;2024-01-16T04:19:37;-1.00;1.00
24436;DHT22;12616;52.470;13.436;2024-01-16T04:22:06;-1.00;1.00
24436;DHT22;12616;52.470;13.436;2024-01-16T04:24:33;-1.00;1.00
24436;DHT22;12616;52.470;13.436;2024-01-16T04:26:59;-1.10;1.00
24436;DHT22;12616;52.470;13.436;2024-01-16T04:29:26;-1.00;1.00
24436;DHT22;12616;52.470;13.436;2024-01-16T04:31:53;-1.00;1.00
24436;DHT22;12616;52.470;13.436;2024-01-16T04:34:20;-1.00;1.00
24436;DHT22;12616;52.470;13.436;2024-01-16T04:36:47;-1.00;1.00
24436;DHT22;12616;52.470;13.436;2024-01-16T04:39:15;-0.90;1.00
24436;DHT22;12616;52.470;13.436;2024-01-16T04:41:43;-1.00;1.00
24436;DHT22;12616;52.470;13.436;2024-01-16T04:44:09;-1.00;1.00
24436;DHT22;12616;52.470;13.436;2024-01-16T04:46:36;-1.00;1.00
24436;DHT22;12616;52.470;13.436;2024-01-16T04:49:03;-1.00;1.00
24436;DHT22;12616;52.470;13.436;2024-01-16T04:51:30;-1.00;1.00
24436;DHT22;12616;52.470;13.436;2024-01-16T04:53:57;-1.00;1.00
24436;DHT22;12616;52.470;13.436;2024-01-16T04:56:25;-1.00;1.00
24436;DHT22;12616;52.470;13.436;2024-01-16T04:58:52;-1.00;1.00
24436;DHT22;12616;52.470;13.436;2024-01-16T05:01:19;-1.10;1.00
24436;DHT22;12616;52.470;13.436;2024-01-16T05:03:46;-1.20;1.00
24436;DHT22;12616;52.470;13.436;2024-01-16T05:06:13;-1.20;1.00
24436;DHT22;12616;52.470;13.436;2024-01-16T05:08:41;-1.20;1.00
24436;DHT22;12616;52.470;13.436;2024-01-16T05:11:08;-1.20;1.00
24436;DHT22;12616;52.470;13.436;2024-01-16T05:13:36;-1.20;1.00
24436;DHT22;12616;52.470;13.436;2024-01-16T05:16:04;-1.10;1.00
24436;DHT22;12616;52.470;13.436;2024-01-16T05:18:31;-1.10;1.00
24436;DHT22;12616;52.470;13.436;2024-01-16T05:20:59;-1.20;1.00
24436;DHT22;12616;52.470;13.436;2024-01-16T05:23:25;-1.20;1.00
24436;DHT22;12616;52.470;13.436;2024-01-16T05:25:52;-1.20;1.00
24436;DHT22;12616;52.470;13.436;2024-01-16T05:28:19;-1.30;1.00
24436;DHT22;12616;52.470;13.436;2024-01-16T05:30:47;-1.30;1.00
24436;DHT22;12616;52.470;13.436;2024-01-16T05:33:14;-1.30;1.00
24436;DHT22;12616;52.470;13.436;2024-01-16T05:35:41;-1.30;1.00
24436;DHT22;12616;52.470;13.436;2024-01-16T05:38:08;-1.40;1.00
24436;DHT22;12616;52.470;13.436;2024-01-16T05:40:37;-1.40;1.00
24436;DHT22;12616;52.470;13.436;2024-01-16T05:43:04;-1.40;1.00
24436;DHT22;12616;52.470;13.436;2024-01-16T05:45:31;-1.50;1.00
24436;DHT22;12616;52.470;13.436;2024-01-16T05:48:00;-1.40;1.00
24436;DHT22;12616;52.470;13.436;2024-01-16T05:50:26;-1.50;1.00
24436;DHT22;12616;52.470;13.436;2024-01-16T05:52:53;-1.50;1.00
24436;DHT22;12616;52.470;13.436;2024-01-16T05:55:20;-1.60;1.00
24436;DHT22;12616;52.470;13.436;2024-01-16T05:57:48;-1.50;1.00
24436;DHT22;12616;52.470;13.436;2024-01-16T06:00:15;-1.60;1.00
24436;DHT22;12616;52.470;13.436;2024-01-16T06:02:43;-1.60;1.00
24436;DHT22;12616;52.470;13.436;2024-01-16T06:05:11;-1.60;1.00
24436;DHT22;12616;52.470;13.436;2024-01-16T06:07:39;-1.50;1.00
24436;DHT22;12616;52.470;13.436;2024-01-16T06:10:07;-1.50;1.00
24436;DHT22;12616;52.470;13.436;2024-01-16T06:12:34;-1.50;1.00
24436;DHT22;12616;52.470;13.436;2024-01-16T06:15:01;-1.50;1.00
24436;DHT22;12616;52.470;13.436;2024-01-16T06:17:28;-1.60;1.00
24436;DHT22;12616;52.470;13.436;2024-01-16T06:19:55;-1.50;1.00
24436;DHT22;12616;52.470;13.436;2024-01-16T06:22:24;-1.50;1.00
24436;DHT22;12616;52.470;13.436;2024-01-16T06:24:50;-1.60;1.00
24436;DHT22;12616;52.470;13.436;2024-01-16T06:27:17;-1.60;1.00
24436;DHT22;12616;52.470;13.436;2024-01-16T06:29:45;-1.70;1.00
24436;DHT22;12616;52.470;13.436;2024-01-16T06:32:12;-1.70;1.00
24436;DHT22;12616;52.470;13.436;2024-01-16T06:34:39;-1.70;1.00
24436;DHT22;12616;52.470;13.436;2024-01-16T06:37:08;-1.70;1.00
24436;DHT22;12616;52.470;13.436;2024-01-16T06:39:37;-1.70;1.00
24436;DHT22;12616;52.470;13.436;2024-01-16T06:42:05;-1.80;1.00
24436;DHT22;12616;52.470;13.436;2024-01-16T06:44:32;-1.80;1.00
24436;DHT22;12616;52.470;13.436;2024-01-16T06:46:59;-1.80;1.00
24436;DHT22;12616;52.470;13.436;2024-01-16T06:49:26;-1.70;1.00
24436;DHT22;12616;52.470;13.436;2024-01-16T06:51:53;-1.70;1.00
24436;DHT22;12616;52.470;13.436;2024-01-16T06:54:20;-1.70;1.00
24436;DHT22;12616;52.470;13.436;2024-01-16T06:56:50;-1.60;1.00
24436;DHT22;12616;52.470;13.436;2024-01-16T06:59:17;-1.60;1.00
24436;DHT22;12616;52.470;13.436;2024-01-16T07:01:45;-1.50;1.00
24436;DHT22;12616;52.470;13.436;2024-01-16T07:04:12;-1.50;1.00
24436;DHT22;12616;52.470;13.436;2024-01-16T07:06:39;-1.50;1.00
24436;DHT22;12616;52.470;13.436;2024-01-16T07:09:07;-1.50;1.00
24436;DHT22;12616;52.470;13.436;2024-01-16T07:11:36;-1.40;1.00
24436;DHT22;12616;52.470;13.436;2024-01-16T07:14:07;-1.50;1.00
24436;DHT22;12616;52.470;13.436;2024-01-16T07:16:33;-1.40;1.00
24436;DHT22;12616;52.470;13.436;2024-01-16T07:19:01;-1.40;1.00
24436;DHT22;12616;52.470;13.436;2024-01-16T07:21:28;-1.30;1.00
24436;DHT22;12616;52.470;13.436;2024-01-16T07:23:55;-1.30;1.00
24436;DHT22;12616;52.470;13.436;2024-01-16T07:26:22;-1.30;1.00
24436;DHT22;12616;52.470;13.436;2024-01-16T07:28:49;-1.40;1.00
24436;DHT22;12616;52.470;13.436;2024-01-16T07:31:19;-1.30;1.00
24436;DHT22;12616;52.470;13.436;2024-01-16T07:33:46;-1.30;1.00
24436;DHT22;12616;52.470;13.436;2024-01-16T07:36:13;-1.30;1.00
24436;DHT22;12616;52.470;13.436;2024-01-16T07:38:40;-1.20;1.00
24436;DHT22;12616;52.470;13.436;2024-01-16T07:41:06;-1.20;1.00
24436;DHT22;12616;52.470;13.436;2024-01-16T07:43:33;-1.20;1.00
24436;DHT22;12616;52.470;13.436;2024-01-16T07:46:00;-1.20;1.00
24436;DHT22;12616;52.470;13.436;2024-01-16T07:48:29;-1.20;1.00
24436;DHT22;12616;52.470;13.436;2024-01-16T07:50:56;-1.20;1.00
24436;DHT22;12616;52.470;13.436;2024-01-16T07:53:23;-1.20;1.00
24436;DHT22;12616;52.470;13.436;2024-01-16T07:55:53;-1.20;1.00
24436;DHT22;12616;52.470;13.436;2024-01-16T07:58:20;-1.20;1.00
24436;DHT22;12616;52.470;13.436;2024-01-16T08:00:47;-1.20;1.00
24436;DHT22;12616;52.470;13.436;2024-01-16T08:03:14;-1.20;1.00
24436;DHT22;12616;52.470;13.436;2024-01-16T08:05:42;-1.20;1.00
24436;DHT22;12616;52.470;13.436;2024-01-16T08:08:09;-1.10;1.00
24436;DHT22;12616;52.470;13.436;2024-01-16T08:10:36;-1.10;1.00
24436;DHT22;12616;52.470;13.436;2024-01-16T08:13:03;-1.00;1.00
24436;DHT22;12616;52.470;13.436;2024-01-16T08:15:30;-1.00;1.00
24436;DHT22;12616;52.470;13.436;2024-01-16T08:17:57;-1.10;1.00
24436;DHT22;12616;52.470;13.436;2024-01-16T08:20:23;-1.10;1.00
24436;DHT22;12616;52.470;13.436;2024-01-16T08:22:53;-1.00;1.00
24436;DHT22;12616;52.470;13.436;2024-01-16T08:25:19;-1.00;1.00
24436;DHT22;12616;52.470;13.436;2024-01-16T08:27:46;-0.80;1.00
24436;DHT22;12616;52.470;13.436;2024-01-16T08:30:13;-0.90;1.00
24436;DHT22;12616;52.470;13.436;2024-01-16T08:32:40;-0.80;1.00
24436;DHT22;12616;52.470;13.436;2024-01-16T08:35:08;-0.80;1.00
24436;DHT22;12616;52.470;13.436;2024-01-16T08:37:35;-0.80;1.00
24436;DHT22;12616;52.470;13.436;2024-01-16T08:40:04;-0.70;1.00
24436;DHT22;12616;52.470;13.436;2024-01-16T08:42:32;-0.70;1.00
24436;DHT22;12616;52.470;13.436;2024-01-16T08:44:58;-0.60;1.00
24436;DHT22;12616;52.470;13.436;2024-01-16T08:47:25;-0.50;1.00
24436;DHT22;12616;52.470;13.436;2024-01-16T08:49:52;-0.50;1.00
24436;DHT22;12616;52.470;13.436;2024-01-16T08:52:19;-0.50;1.00
24436;DHT22;12616;52.470;13.436;2024-01-16T08:54:47;-0.50;1.00
24436;DHT22;12616;52.470;13.436;2024-01-16T08:57:16;-0.50;1.00
24436;DHT22;12616;52.470;13.436;2024-01-16T08:59:44;-0.50;1.00
24436;DHT22;12616;52.470;13.436;2024-01-16T09:02:11;-0.40;1.00
24436;DHT22;12616;52.470;13.436;2024-01-16T09:04:37;-0.40;1.00
24436;DHT22;12616;52.470;13.436;2024-01-16T09:07:04;-0.40;1.00
24436;DHT22;12616;52.470;13.436;2024-01-16T09:09:31;-0.30;1.00
24436;DHT22;12616;52.470;13.436;2024-01-16T09:11:58;-0.30;1.00
24436;DHT22;12616;52.470;13.436;2024-01-16T09:14:26;-0.20;1.00
24436;DHT22;12616;52.470;13.436;2024-01-16T09:16:53;-0.20;1.00
24436;DHT22;12616;52.470;13.436;2024-01-16T09:19:20;-0.20;1.00
24436;DHT22;12616;52.470;13.436;2024-01-16T09:21:47;-0.10;1.00
24436;DHT22;12616;52.470;13.436;2024-01-16T09:24:14;-0.10;1.00
24436;DHT22;12616;52.470;13.436;2024-01-16T09:26:41;-0.20;1.00
24436;DHT22;12616;52.470;13.436;2024-01-16T09:29:10;-0.20;1.00
24436;DHT22;12616;52.470;13.436;2024-01-16T09:31:38;-0.20;1.00
24436;DHT22;12616;52.470;13.436;2024-01-16T09:34:05;-0.10;1.00
24436;DHT22;12616;52.470;13.436;2024-01-16T09:36:32;0.00;1.00
24436;DHT22;12616;52.470;13.436;2024-01-16T09:39:01;0.10;1.00
24436;DHT22;12616;52.470;13.436;2024-01-16T09:41:28;0.10;1.00
24436;DHT22;12616;52.470;13.436;2024-01-16T09:43:58;0.10;1.00
24436;DHT22;12616;52.470;13.436;2024-01-16T09:46:26;0.20;1.00
24436;DHT22;12616;52.470;13.436;2024-01-16T09:48:55;0.00;99.90
24436;DHT22;12616;52.470;13.436;2024-01-16T09:51:22;-0.10;1.00
24436;DHT22;12616;52.470;13.436;2024-01-16T09:53:49;-0.10;1.00
24436;DHT22;12616;52.470;13.436;2024-01-16T09:56:19;-0.10;1.00
24436;DHT22;12616;52.470;13.436;2024-01-16T09:58:50;0.00;1.00
24436;DHT22;12616;52.470;13.436;2024-01-16T10:01:21;0.00;1.00
24436;DHT22;12616;52.470;13.436;2024-01-16T10:03:49;0.00;1.00
24436;DHT22;12616;52.470;13.436;2024-01-16T10:06:20;0.00;1.00
24436;DHT22;12616;52.470;13.436;2024-01-16T10:08:48;0.10;1.00
24436;DHT22;12616;52.470;13.436;2024-01-16T10:11:15;0.30;1.00
24436;DHT22;12616;52.470;13.436;2024-01-16T10:13:43;0.20;1.00
24436;DHT22;12616;52.470;13.436;2024-01-16T10:16:10;0.30;1.00
24436;DHT22;12616;52.470;13.436;2024-01-16T10:18:37;0.50;1.00
24436;DHT22;12616;52.470;13.436;2024-01-16T10:21:04;0.50;1.00
24436;DHT22;12616;52.470;13.436;2024-01-16T10:23:34;0.50;1.00
24436;DHT22;12616;52.470;13.436;2024-01-16T10:26:06;0.50;1.00
24436;DHT22;12616;52.470;13.436;2024-01-16T10:28:33;0.50;99.90
24436;DHT22;12616;52.470;13.436;2024-01-16T10:31:04;0.40;1.00
24436;DHT22;12616;52.470;13.436;2024-01-16T10:33:31;0.50;1.00
24436;DHT22;12616;52.470;13.436;2024-01-16T10:36:08;0.60;1.00
24436;DHT22;12616;52.470;13.436;2024-01-16T10:38:37;0.60;99.90
24436;DHT22;12616;52.470;13.436;2024-01-16T10:41:06;0.60;99.90
24436;DHT22;12616;52.470;13.436;2024-01-16T10:43:33;0.60;99.90
24436;DHT22;12616;52.470;13.436;2024-01-16T10:46:10;0.70;99.90
24436;DHT22;12616;52.470;13.436;2024-01-16T10:48:40;0.70;99.90
24436;DHT22;12616;52.470;13.436;2024-01-16T10:51:09;0.70;99.90
24436;DHT22;12616;52.470;13.436;2024-01-16T10:53:42;0.60;99.90
24436;DHT22;12616;52.470;13.436;2024-01-16T10:56:11;0.70;99.90
24436;DHT22;12616;52.470;13.436;2024-01-16T10:58:40;0.90;99.90
24436;DHT22;12616;52.470;13.436;2024-01-16T11:01:10;0.90;99.90
24436;DHT22;12616;52.470;13.436;2024-01-16T11:03:40;0.90;99.90
24436;DHT22;12616;52.470;13.436;2024-01-16T11:06:10;1.00;99.90
24436;DHT22;12616;52.470;13.436;2024-01-16T11:08:40;1.10;99.90
24436;DHT22;12616;52.470;13.436;2024-01-16T11:11:08;1.00;99.80
24436;DHT22;12616;52.470;13.436;2024-01-16T11:13:36;1.00;99.90
24436;DHT22;12616;52.470;13.436;2024-01-16T11:16:03;1.00;53.30
24436;DHT22;12616;52.470;13.436;2024-01-16T11:18:34;0.90;6.50
24436;DHT22;12616;52.470;13.436;2024-01-16T11:21:03;0.90;1.00
24436;DHT22;12616;52.470;13.436;2024-01-16T11:23:31;0.90;1.00
24436;DHT22;12616;52.470;13.436;2024-01-16T11:26:24;1.10;6.50
24436;DHT22;12616;52.470;13.436;2024-01-16T11:28:51;1.00;1.00
24436;DHT22;12616;52.470;13.436;2024-01-16T11:31:31;1.00;1.00
24436;DHT22;12616;52.470;13.436;2024-01-16T11:33:59;0.90;1.00
24436;DHT22;12616;52.470;13.436;2024-01-16T11:36:48;0.90;1.00
24436;DHT22;12616;52.470;13.436;2024-01-16T11:39:20;1.00;31.40
24436;DHT22;12616;52.470;13.436;2024-01-16T11:41:50;1.00;5.00
24436;DHT22;12616;52.470;13.436;2024-01-16T11:44:38;0.90;9.20
24436;DHT22;12616;52.470;13.436;2024-01-16T11:47:06;1.00;32.40
24436;DHT22;12616;52.470;13.436;2024-01-16T11:49:34;0.90;66.40
24436;DHT22;12616;52.470;13.436;2024-01-16T11:52:01;0.80;97.40
24436;DHT22;12616;52.470;13.436;2024-01-16T11:54:28;0.80;99.90
24436;DHT22;12616;52.470;13.436;2024-01-16T12:00:00;0.80;99.90
24436;DHT22;12616;52.470;13.436;2024-01-16T12:02:35;0.80;99.90
24436;DHT22;12616;52.470;13.436;2024-01-16T12:05:05;0.80;99.90
24436;DHT22;12616;52.470;13.436;2024-01-16T12:07:43;0.80;99.90
24436;DHT22;12616;52.470;13.436;2024-01-16T12:10:10;0.80;99.90
24436;DHT22;12616;52.470;13.436;2024-01-16T12:12:38;0.80;99.90
24436;DHT22;12616;52.470;13.436;2024-01-16T12:15:05;0.90;99.90
24436;DHT22;12616;52.470;13.436;2024-01-16T12:17:33;1.00;99.90
24436;DHT22;12616;52.470;13.436;2024-01-16T12:20:00;1.00;99.90
24436;DHT22;12616;52.470;13.436;2024-01-16T12:22:27;1.10;99.90
24436;DHT22;12616;52.470;13.436;2024-01-16T12:24:56;1.10;99.90
24436;DHT22;12616;52.470;13.436;2024-01-16T12:27:24;1.10;99.90
24436;DHT22;12616;52.470;13.436;2024-01-16T12:30:06;1.10;99.90
24436;DHT22;12616;52.470;13.436;2024-01-16T12:32:33;1.00;99.90
24436;DHT22;12616;52.470;13.436;2024-01-16T12:35:00;1.00;99.90
24436;DHT22;12616;52.470;13.436;2024-01-16T12:37:27;1.00;99.90
24436;DHT22;12616;52.470;13.436;2024-01-16T12:39:55;0.90;99.90
24436;DHT22;12616;52.470;13.436;2024-01-16T12:42:23;0.90;99.90
24436;DHT22;12616;52.470;13.436;2024-01-16T12:44:51;0.90;99.90
24436;DHT22;12616;52.470;13.436;2024-01-16T12:47:19;0.90;99.90
24436;DHT22;12616;52.470;13.436;2024-01-16T12:49:47;0.90;99.90
24436;DHT22;12616;52.470;13.436;2024-01-16T12:52:18;1.00;99.90
24436;DHT22;12616;52.470;13.436;2024-01-16T12:54:46;1.00;99.90
24436;DHT22;12616;52.470;13.436;2024-01-16T12:57:17;1.00;99.90
24436;DHT22;12616;52.470;13.436;2024-01-16T12:59:45;1.00;99.90
24436;DHT22;12616;52.470;13.436;2024-01-16T13:02:21;1.00;99.90
24436;DHT22;12616;52.470;13.436;2024-01-16T13:04:56;1.00;99.90
24436;DHT22;12616;52.470;13.436;2024-01-16T13:07:24;0.90;99.90
24436;DHT22;12616;52.470;13.436;2024-01-16T13:10:04;1.10;1.00
24436;DHT22;12616;52.470;13.436;2024-01-16T13:12:31;1.00;1.00
24436;DHT22;12616;52.470;13.436;2024-01-16T13:14:59;0.90;1.00
24436;DHT22;12616;52.470;13.436;2024-01-16T13:17:27;1.00;1.00
24436;DHT22;12616;52.470;13.436;2024-01-16T13:19:54;1.10;1.00
24436;DHT22;12616;52.470;13.436;2024-01-16T13:22:21;1.10;1.00
24436;DHT22;12616;52.470;13.436;2024-01-16T13:24:47;1.20;99.90
24436;DHT22;12616;52.470;13.436;2024-01-16T13:27:14;1.20;99.90
24436;DHT22;12616;52.470;13.436;2024-01-16T13:29:41;1.30;99.90
24436;DHT22;12616;52.470;13.436;2024-01-16T13:32:10;1.40;99.90
24436;DHT22;12616;52.470;13.436;2024-01-16T13:34:38;1.40;99.90
24436;DHT22;12616;52.470;13.436;2024-01-16T13:37:08;1.50;99.90
24436;DHT22;12616;52.470;13.436;2024-01-16T13:39:35;1.50;99.90
24436;DHT22;12616;52.470;13.436;2024-01-16T13:42:04;1.40;99.90
24436;DHT22;12616;52.470;13.436;2024-01-16T13:44:32;1.40;99.90
24436;DHT22;12616;52.470;13.436;2024-01-16T13:46:59;1.40;99.90
24436;DHT22;12616;52.470;13.436;2024-01-16T13:49:26;1.40;31.50
24436;DHT22;12616;52.470;13.436;2024-01-16T13:51:54;1.40;2.20
24436;DHT22;12616;52.470;13.436;2024-01-16T13:54:21;1.40;19.10
24436;DHT22;12616;52.470;13.436;2024-01-16T13:56:48;1.40;34.70
24436;DHT22;12616;52.470;13.436;2024-01-16T13:59:14;1.40;1.00
24436;DHT22;12616;52.470;13.436;2024-01-16T14:01:41;1.50;1.00
24436;DHT22;12616;52.470;13.436;2024-01-16T14:04:10;1.30;1.00
24436;DHT22;12616;52.470;13.436;2024-01-16T14:06:37;1.30;24.60
24436;DHT22;12616;52.470;13.436;2024-01-16T14:09:06;1.30;1.00
24436;DHT22;12616;52.470;13.436;2024-01-16T14:11:35;1.20;93.30
24436;DHT22;12616;52.470;13.436;2024-01-16T14:14:02;1.30;99.90
24436;DHT22;12616;52.470;13.436;2024-01-16T14:16:30;1.30;96.90
24436;DHT22;12616;52.470;13.436;2024-01-16T14:18:57;1.20;40.30
24436;DHT22;12616;52.470;13.436;2024-01-16T14:21:24;1.30;44.30
24436;DHT22;12616;52.470;13.436;2024-01-16T14:23:51;1.20;1.00
24436;DHT22;12616;52.470;13.436;2024-01-16T14:26:19;1.30;1.00
24436;DHT22;12616;52.470;13.436;2024-01-16T14:28:46;1.40;1.00
24436;DHT22;12616;52.470;13.436;2024-01-16T14:31:15;1.30;1.00
24436;DHT22;12616;52.470;13.436;2024-01-16T14:33:42;1.40;1.00
24436;DHT22;12616;52.470;13.436;2024-01-16T14:36:09;1.40;1.00
24436;DHT22;12616;52.470;13.436;2024-01-16T14:38:36;1.30;1.00
24436;DHT22;12616;52.470;13.436;2024-01-16T14:41:03;1.30;1.00
24436;DHT22;12616;52.470;13.436;2024-01-16T14:43:32;1.40;14.00
24436;DHT22;12616;52.470;13.436;2024-01-16T14:45:59;1.40;1.00
24436;DHT22;12616;52.470;13.436;2024-01-16T14:48:29;1.40;1.00
24436;DHT22;12616;52.470;13.436;2024-01-16T14:50:56;1.40;1.00
24436;DHT22;12616;52.470;13.436;2024-01-16T14:53:23;1.30;1.00
24436;DHT22;12616;52.470;13.436;2024-01-16T14:55:50;1.30;1.00
24436;DHT22;12616;52.470;13.436;2024-01-16T14:58:17;1.30;1.00
24436;DHT22;12616;52.470;13.436;2024-01-16T15:00:50;1.30;1.00
24436;DHT22;12616;52.470;13.436;2024-01-16T15:03:19;1.30;1.00
24436;DHT22;12616;52.470;13.436;2024-01-16T15:05:46;1.30;1.00
24436;DHT22;12616;52.470;13.436;2024-01-16T15:08:13;1.20;1.00
24436;DHT22;12616;52.470;13.436;2024-01-16T15:10:40;1.20;29.20
24436;DHT22;12616;52.470;13.436;2024-01-16T15:13:07;1.10;99.90
24436;DHT22;12616;52.470;13.436;2024-01-16T15:15:35;1.10;99.90
24436;DHT22;12616;52.470;13.436;2024-01-16T15:18:04;1.00;99.90
24436;DHT22;12616;52.470;13.436;2024-01-16T15:20:30;1.00;99.90
24436;DHT22;12616;52.470;13.436;2024-01-16T15:22:57;0.90;99.90
24436;DHT22;12616;52.470;13.436;2024-01-16T15:25:24;0.90;99.90
24436;DHT22;12616;52.470;13.436;2024-01-16T15:27:51;0.80;99.90
24436;DHT22;12616;52.470;13.436;2024-01-16T15:30:19;0.70;99.90
24436;DHT22;12616;52.470;13.436;2024-01-16T15:32:47;0.70;1.00
24436;DHT22;12616;52.470;13.436;2024-01-16T15:35:16;0.70;1.00
24436;DHT22;12616;52.470;13.436;2024-01-16T15:37:42;0.70;1.00
24436;DHT22;12616;52.470;13.436;2024-01-16T15:40:10;0.70;1.00
24436;DHT22;12616;52.470;13.436;2024-01-16T15:42:38;0.70;1.00
24436;DHT22;12616;52.470;13.436;2024-01-16T15:45:05;0.80;1.00
24436;DHT22;12616;52.470;13.436;2024-01-16T15:47:33;0.80;1.00
24436;DHT22;12616;52.470;13.436;2024-01-16T15:50:00;0.80;1.00
24436;DHT22;12616;52.470;13.436;2024-01-16T15:52:29;0.80;1.00
24436;DHT22;12616;52.470;13.436;2024-01-16T15:54:56;0.80;1.00
24436;DHT22;12616;52.470;13.436;2024-01-16T15:57:23;0.80;1.00
24436;DHT22;12616;52.470;13.436;2024-01-16T15:59:50;0.80;1.00
24436;DHT22;12616;52.470;13.436;2024-01-16T16:02:17;0.70;1.00
24436;DHT22;12616;52.470;13.436;2024-01-16T16:04:44;0.70;1.00
24436;DHT22;12616;52.470;13.436;2024-01-16T16:07:11;0.70;9.80
24436;DHT22;12616;52.470;13.436;2024-01-16T16:09:40;0.70;57.60
24436;DHT22;12616;52.470;13.436;2024-01-16T18:34:13;0.80;99.90
24436;DHT22;12616;52.470;13.436;2024-01-16T18:36:48;0.80;99.90
24436;DHT22;12616;52.470;13.436;2024-01-16T18:39:15;0.70;99.90
24436;DHT22;12616;52.470;13.436;2024-01-16T18:41:45;0.80;99.90
24436;DHT22;12616;52.470;13.436;2024-01-16T18:44:13;0.70;99.90
24436;DHT22;12616;52.470;13.436;2024-01-16T18:46:40;0.70;99.90
24436;DHT22;12616;52.470;13.436;2024-01-16T19:10:29;0.60;99.90
24436;DHT22;12616;52.470;13.436;2024-01-16T19:13:19;0.60;99.90
24436;DHT22;12616;52.470;13.436;2024-01-16T19:15:49;0.70;99.90
24436;DHT22;12616;52.470;13.436;2024-01-16T19:18:17;0.50;99.90
24436;DHT22;12616;52.470;13.436;2024-01-16T19:24:15;0.60;99.90
24436;DHT22;12616;52.470;13.436;2024-01-16T19:26:45;0.70;99.90
24436;DHT22;12616;52.470;13.436;2024-01-16T19:29:12;0.70;99.90
24436;DHT22;12616;52.470;13.436;2024-01-16T19:31:43;0.70;99.90
24436;DHT22;12616;52.470;13.436;2024-01-16T19:34:10;0.60;99.90
24436;DHT22;12616;52.470;13.436;2024-01-16T19:36:37;0.60;99.90